Time;durP1;ratioP1;P1;durP2;ratioP2;P2;SDS_P1;SDS_P2;PMS_P1;PMS_P2;Temp;Humidity;BMP_temperature;BMP_pressure;BME280_temperature;BME280_humidity;BME280_pressure;Samples;Min_cycle;Max_cycle;Signal;HPM_P1;HPM_P2
2021/01/12 00:10:28;;;;;;;5.35;2.10;;;9.00;74.40;;;;;;4906941;29;20144;-75
2021/01/12 00:12:54;;;;;;;2.58;1.60;;;8.80;74.50;;;;;;4918895;29;20130;-75
2021/01/12 00:15:21;;;;;;;1.70;0.65;;;8.90;74.70;;;;;;4918692;29;20078;-75
2021/01/12 00:17:46;;;;;;;4.20;1.00;;;8.90;74.90;;;;;;4918584;29;20122;-75
2021/01/12 00:20:12;;;;;;;2.28;0.98;;;8.90;75.00;;;;;;4918123;29;20138;-75
2021/01/12 00:22:39;;;;;;;2.25;0.85;;;8.90;74.80;;;;;;4918746;29;20048;-75
2021/01/12 00:25:07;;;;;;;2.50;0.98;;;8.70;74.70;;;;;;4918320;29;20051;-75
2021/01/12 00:27:32;;;;;;;2.30;0.73;;;8.70;74.80;;;;;;4918068;29;20051;-75
2021/01/12 00:29:58;;;;;;;4.25;0.68;;;8.60;75.00;;;;;;4918519;29;20040;-75
2021/01/12 00:32:26;;;;;;;1.65;0.32;;;8.40;75.10;;;;;;4918174;29;20040;-75
2021/01/12 00:34:53;;;;;;;4.25;0.70;;;8.50;75.20;;;;;;4918262;29;20051;-75
2021/01/12 00:37:20;;;;;;;4.72;0.47;;;8.70;75.30;;;;;;4918227;29;20043;-75
2021/01/12 00:39:46;;;;;;;2.60;0.55;;;8.50;75.30;;;;;;4918291;29;20485;-75
2021/01/12 00:42:12;;;;;;;2.13;0.40;;;8.70;75.40;;;;;;4917860;29;20571;-75
2021/01/12 00:44:38;;;;;;;4.90;0.50;;;8.70;75.50;;;;;;4917959;29;20122;-75
2021/01/12 00:47:06;;;;;;;2.83;0.25;;;8.50;75.50;;;;;;4918231;29;20047;-75
2021/01/12 00:49:32;;;;;;;2.90;0.35;;;8.30;75.60;;;;;;4918123;29;20059;-75
2021/01/12 00:51:57;;;;;;;3.33;0.30;;;8.30;76.00;;;;;;4917854;29;20048;-75
2021/01/12 00:54:25;;;;;;;2.78;0.30;;;7.90;75.80;;;;;;4918193;29;20569;-75
2021/01/12 00:56:54;;;;;;;2.30;0.57;;;8.30;76.20;;;;;;4918248;29;20127;-75
2021/01/12 00:59:21;;;;;;;2.30;0.40;;;8.50;76.40;;;;;;4917910;29;20452;-75
2021/01/12 01:01:47;;;;;;;2.33;0.70;;;8.60;76.60;;;;;;4918047;29;20134;-75
2021/01/12 01:04:14;;;;;;;3.88;0.93;;;8.80;76.90;;;;;;4917420;29;20039;-75
2021/01/12 01:06:41;;;;;;;3.13;1.00;;;8.80;76.90;;;;;;4917659;29;20088;-75
2021/01/12 01:09:08;;;;;;;3.55;1.33;;;8.80;77.00;;;;;;4917853;29;20116;-75
2021/01/12 01:11:40;;;;;;;5.25;1.30;;;8.80;77.00;;;;;;4918307;29;20053;-75
2021/01/12 01:14:05;;;;;;;2.58;0.93;;;8.70;77.10;;;;;;4918276;29;20123;-75
2021/01/12 01:16:32;;;;;;;2.70;0.70;;;8.50;77.10;;;;;;4918085;29;20127;-75
2021/01/12 01:18:59;;;;;;;2.33;0.93;;;8.60;77.40;;;;;;4918237;29;20074;-75
2021/01/12 01:21:25;;;;;;;1.40;0.60;;;9.30;77.90;;;;;;4917774;29;20039;-75
2021/01/12 01:23:50;;;;;;;2.08;0.77;;;8.70;77.70;;;;;;4917815;29;20092;-75
2021/01/12 01:26:20;;;;;;;3.55;0.85;;;8.70;77.80;;;;;;4917628;29;20040;-75
2021/01/12 01:28:46;;;;;;;2.20;0.90;;;8.80;78.10;;;;;;4917959;29;20051;-75
2021/01/12 01:31:12;;;;;;;4.38;1.20;;;8.80;78.10;;;;;;4917828;29;20048;-75
2021/01/12 01:33:38;;;;;;;3.17;0.60;;;8.90;78.30;;;;;;4917722;29;20070;-75
2021/01/12 01:36:08;;;;;;;3.90;0.47;;;8.80;78.40;;;;;;4917326;29;20476;-75
2021/01/12 01:38:34;;;;;;;4.53;0.20;;;8.90;78.50;;;;;;4918058;29;20039;-75
2021/01/12 01:41:00;;;;;;;1.65;0.20;;;8.80;78.60;;;;;;4917548;29;20511;-75
2021/01/12 01:43:26;;;;;;;3.30;1.10;;;8.70;78.60;;;;;;4917902;29;20044;-75
2021/01/12 01:45:52;;;;;;;4.65;0.30;;;9.10;78.90;;;;;;4917556;29;20552;-75
2021/01/12 01:48:19;;;;;;;2.92;0.32;;;9.10;79.00;;;;;;4917583;29;20103;-75
2021/01/12 01:50:45;;;;;;;1.75;0.70;;;8.90;79.00;;;;;;4917673;29;20040;-75
2021/01/12 01:53:11;;;;;;;1.40;0.20;;;9.10;79.10;;;;;;4917676;29;20040;-75
2021/01/12 01:55:39;;;;;;;2.55;0.50;;;9.10;79.20;;;;;;4917256;29;20035;-75
2021/01/12 01:58:06;;;;;;;4.10;0.95;;;9.00;79.30;;;;;;4917707;29;20039;-75
2021/01/12 02:00:36;;;;;;;2.90;0.30;;;8.90;79.50;;;;;;4917787;29;20051;-75
2021/01/12 02:03:07;;;;;;;3.25;0.20;;;8.90;79.70;;;;;;4917264;29;20095;-75
2021/01/12 02:05:38;;;;;;;4.47;0.30;;;8.80;79.40;;;;;;4917248;29;20043;-75
2021/01/12 02:08:48;;;;;;;2.90;0.50;;;8.90;79.50;;;;;;4916876;29;20591;-75
2021/01/12 02:11:15;;;;;;;1.30;0.20;;;8.90;79.70;;;;;;4886372;29;20070;-75
2021/01/12 02:13:42;;;;;;;2.28;0.30;;;8.90;79.70;;;;;;4917445;29;20477;-75
2021/01/12 02:16:10;;;;;;;1.50;0.20;;;9.00;79.70;;;;;;4917504;29;20054;-75
2021/01/12 02:18:36;;;;;;;2.47;0.20;;;9.10;79.90;;;;;;4920589;29;20475;-75
2021/01/12 02:21:04;;;;;;;4.65;0.20;;;9.00;79.80;;;;;;4920695;29;20119;-75
2021/01/12 02:23:34;;;;;;;4.05;0.10;;;9.00;80.00;;;;;;4920854;29;20036;-75
2021/01/12 02:26:02;;;;;;;4.63;0.10;;;9.00;80.10;;;;;;4904624;29;20044;-75
2021/01/12 02:28:28;;;;;;;1.75;0.10;;;9.20;80.20;;;;;;4920364;29;20040;-75
2021/01/12 02:30:54;;;;;;;1.60;0.10;;;9.10;80.20;;;;;;4920394;29;20047;-75
2021/01/12 02:33:20;;;;;;;1.15;0.10;;;9.10;80.30;;;;;;4920143;29;20040;-75
2021/01/12 02:35:48;;;;;;;3.50;0.10;;;9.10;80.40;;;;;;4919717;29;20051;-75
2021/01/12 02:38:14;;;;;;;3.15;0.10;;;9.10;81.10;;;;;;4919869;29;20032;-75
2021/01/12 02:40:40;;;;;;;3.53;0.10;;;8.90;80.50;;;;;;4920051;29;20637;-75
2021/01/12 02:43:06;;;;;;;1.67;0.10;;;9.20;80.80;;;;;;4920161;29;20123;-75
2021/01/12 02:45:32;;;;;;;3.70;0.20;;;9.10;80.80;;;;;;4919883;29;20519;-75
2021/01/12 02:47:58;;;;;;;5.60;0.45;;;9.20;80.70;;;;;;4919837;29;20047;-75
2021/01/12 02:50:24;;;;;;;2.50;0.30;;;9.00;80.70;;;;;;4919986;29;20076;-75
2021/01/12 02:52:50;;;;;;;4.60;0.17;;;9.30;81.00;;;;;;4919908;29;20040;-75
2021/01/12 02:55:16;;;;;;;5.65;0.25;;;9.20;81.10;;;;;;4919518;29;20048;-75
2021/01/12 02:57:42;;;;;;;4.70;0.30;;;9.10;81.10;;;;;;4919570;29;20550;-75
2021/01/12 03:00:10;;;;;;;5.40;0.10;;;9.40;81.30;;;;;;4919562;29;20052;-75
2021/01/12 03:02:36;;;;;;;3.42;0.10;;;9.30;81.20;;;;;;4919343;29;20285;-75
2021/01/12 03:05:06;;;;;;;4.40;0.20;;;9.20;81.20;;;;;;4919278;29;20079;-75
2021/01/12 03:07:33;;;;;;;4.30;0.20;;;9.20;81.20;;;;;;4919458;29;20051;-75
2021/01/12 03:09:59;;;;;;;2.40;0.10;;;9.20;81.20;;;;;;4919954;29;20044;-75
2021/01/12 03:12:25;;;;;;;2.80;0.20;;;9.00;81.10;;;;;;4919726;29;20047;-75
2021/01/12 03:14:51;;;;;;;3.88;0.10;;;9.60;81.60;;;;;;4919385;29;20103;-75
2021/01/12 03:17:18;;;;;;;1.85;0.10;;;9.10;81.30;;;;;;4919359;29;20048;-75
2021/01/12 03:19:44;;;;;;;5.25;0.20;;;9.30;81.40;;;;;;4919335;29;20103;-73
2021/01/12 03:22:10;;;;;;;3.72;0.10;;;9.30;81.30;;;;;;4918593;29;20082;-75
2021/01/12 03:24:37;;;;;;;5.53;0.10;;;9.40;81.40;;;;;;4919097;29;20503;-76
2021/01/12 03:27:04;;;;;;;2.83;0.20;;;9.30;81.40;;;;;;4918963;29;20048;-74
2021/01/12 03:29:30;;;;;;;2.22;0.10;;;9.30;81.40;;;;;;4919338;29;20047;-75
2021/01/12 03:31:56;;;;;;;2.85;0.17;;;9.30;81.40;;;;;;4919227;29;20051;-75
2021/01/12 03:34:22;;;;;;;5.75;0.22;;;9.40;81.60;;;;;;4919300;29;20044;-75
2021/01/12 03:36:48;;;;;;;6.97;0.20;;;9.20;81.40;;;;;;4918872;29;20426;-75
2021/01/12 03:39:14;;;;;;;2.58;0.10;;;9.40;81.60;;;;;;4918850;29;20058;-75
2021/01/12 03:41:40;;;;;;;4.05;0.17;;;9.40;81.60;;;;;;4919202;29;20496;-76
2021/01/12 03:44:06;;;;;;;6.95;0.10;;;9.40;81.60;;;;;;4918803;29;20040;-75
2021/01/12 03:46:31;;;;;;;5.30;0.20;;;9.30;81.50;;;;;;4918889;29;20068;-75
2021/01/12 03:48:58;;;;;;;5.22;0.10;;;9.40;81.60;;;;;;4918592;29;20039;-75
2021/01/12 03:51:24;;;;;;;4.63;0.28;;;9.60;81.80;;;;;;4919136;29;20056;-75
2021/01/12 03:53:51;;;;;;;3.78;0.10;;;9.40;81.70;;;;;;4918632;29;20330;-75
2021/01/12 03:56:18;;;;;;;4.32;0.20;;;9.40;81.60;;;;;;4918791;29;20130;-75
2021/01/12 03:58:43;;;;;;;5.95;0.30;;;9.40;81.60;;;;;;4918578;29;20141;-76
2021/01/12 04:01:13;;;;;;;4.03;0.15;;;9.40;81.60;;;;;;4918262;29;20486;-75
2021/01/12 04:03:42;;;;;;;6.10;0.30;;;9.60;81.70;;;;;;4918166;29;20044;-75
2021/01/12 04:06:16;;;;;;;1.88;0.10;;;9.40;81.60;;;;;;4918512;29;20044;-76
2021/01/12 04:08:46;;;;;;;3.92;0.17;;;9.40;81.60;;;;;;4918384;29;20074;-76
2021/01/12 04:11:13;;;;;;;5.05;0.15;;;9.50;81.70;;;;;;4917975;29;20525;-76
2021/01/12 04:13:40;;;;;;;3.60;0.20;;;9.20;81.60;;;;;;4917725;29;20036;-75
2021/01/12 04:16:07;;;;;;;4.53;0.35;;;9.60;81.70;;;;;;4917591;29;20040;-75
2021/01/12 04:18:34;;;;;;;6.30;0.20;;;9.30;81.50;;;;;;4918190;29;20508;-75
2021/01/12 04:20:59;;;;;;;5.05;0.30;;;9.50;81.60;;;;;;4917499;29;20079;-75
2021/01/12 04:23:25;;;;;;;3.75;0.10;;;9.70;81.70;;;;;;4917978;29;20115;-75
2021/01/12 04:25:51;;;;;;;4.10;0.13;;;9.50;81.50;;;;;;4917985;29;20044;-75
2021/01/12 04:28:18;;;;;;;6.22;0.20;;;9.60;81.50;;;;;;4918020;29;20437;-75
2021/01/12 04:30:44;;;;;;;3.45;0.20;;;9.60;81.40;;;;;;4917800;29;20127;-75
2021/01/12 04:33:10;;;;;;;4.03;0.20;;;9.70;81.50;;;;;;4917870;29;20039;-75
2021/01/12 04:35:36;;;;;;;4.80;0.20;;;9.70;81.50;;;;;;4917273;29;20044;-75
2021/01/12 04:38:03;;;;;;;4.13;0.15;;;9.50;81.40;;;;;;4917878;29;20046;-75
2021/01/12 04:40:29;;;;;;;7.82;0.22;;;9.60;81.40;;;;;;4917495;29;20112;-76
2021/01/12 04:42:58;;;;;;;4.43;0.28;;;9.60;81.30;;;;;;4917528;29;20500;-75
2021/01/12 04:45:25;;;;;;;1.35;0.10;;;9.60;81.20;;;;;;4917381;29;20044;-75
2021/01/12 04:47:51;;;;;;;3.60;0.20;;;9.60;81.10;;;;;;4917750;29;20595;-75
2021/01/12 04:50:16;;;;;;;3.70;0.10;;;9.70;81.10;;;;;;4917426;29;20044;-75
2021/01/12 04:52:52;;;;;;;2.78;0.20;;;9.80;81.10;;;;;;4917809;29;20492;-75
2021/01/12 04:55:19;;;;;;;4.40;0.10;;;9.70;81.00;;;;;;4917235;29;20330;-75
2021/01/12 04:57:46;;;;;;;2.80;0.20;;;9.80;81.10;;;;;;4917348;29;20039;-76
2021/01/12 05:00:15;;;;;;;4.38;0.15;;;9.50;81.00;;;;;;4916981;29;20104;-75
2021/01/12 05:02:43;;;;;;;6.30;0.20;;;9.60;81.00;;;;;;4917510;29;20040;-75
2021/01/12 05:05:09;;;;;;;7.18;0.20;;;9.60;81.00;;;;;;4917627;29;20044;-73
2021/01/12 05:07:38;;;;;;;3.58;0.20;;;9.70;81.00;;;;;;4917583;29;20040;-75
2021/01/12 05:10:11;;;;;;;3.45;0.32;;;9.80;81.10;;;;;;4917061;29;20090;-75
2021/01/12 05:12:40;;;;;;;5.20;0.30;;;9.60;81.00;;;;;;4917577;29;20040;-75
2021/01/12 05:15:09;;;;;;;5.65;0.50;;;9.60;81.00;;;;;;4917364;29;20048;-75
2021/01/12 05:17:37;;;;;;;5.13;0.50;;;9.60;80.90;;;;;;4917084;29;20036;-75
2021/01/12 05:20:04;;;;;;;5.85;0.80;;;9.80;81.00;;;;;;4917657;29;20079;-75
2021/01/12 05:22:32;;;;;;;4.65;0.50;;;9.70;81.00;;;;;;4917016;29;20076;-75
2021/01/12 05:27:44;;;;;;;1.58;0.13;;;9.70;81.20;;;;;;4917238;29;20124;-75
2021/01/12 05:30:10;;;;;;;3.22;0.20;;;9.80;81.20;;;;;;4917692;29;20079;-75
2021/01/12 05:32:39;;;;;;;4.03;0.15;;;9.70;81.10;;;;;;4917366;29;20039;-75
2021/01/12 05:35:07;;;;;;;6.35;0.13;;;9.80;81.10;;;;;;4916988;29;20047;-75
2021/01/12 05:37:34;;;;;;;2.20;0.10;;;9.60;80.90;;;;;;4916871;29;20052;-76
2021/01/12 05:40:04;;;;;;;4.30;0.10;;;9.90;81.10;;;;;;4916853;29;20108;-76
2021/01/12 05:42:31;;;;;;;7.10;0.20;;;9.90;81.60;;;;;;4917361;29;20048;-75
2021/01/12 05:44:57;;;;;;;3.25;0.10;;;9.80;81.00;;;;;;4917366;29;20044;-76
2021/01/12 05:47:23;;;;;;;2.42;0.10;;;9.80;81.00;;;;;;4917671;29;20404;-75
2021/01/12 05:49:52;;;;;;;2.85;0.20;;;9.90;80.90;;;;;;4917011;29;20082;-76
2021/01/12 05:52:19;;;;;;;4.43;0.38;;;9.80;80.70;;;;;;4920718;29;20064;-76
2021/01/12 05:55:05;;;;;;;6.70;0.50;;;9.80;80.50;;;;;;4920678;29;20051;-76
2021/01/12 05:57:37;;;;;;;5.53;0.35;;;9.80;80.60;;;;;;4920563;29;20040;-76
2021/01/12 06:00:05;;;;;;;5.75;0.40;;;9.90;80.40;;;;;;4920455;29;20052;-76
2021/01/12 06:02:32;;;;;;;8.98;0.50;;;9.90;80.30;;;;;;4920852;29;20048;-76
2021/01/12 06:04:59;;;;;;;4.22;0.68;;;9.90;80.20;;;;;;4920247;29;20319;-75
2021/01/12 06:07:26;;;;;;;3.92;0.50;;;9.80;80.10;;;;;;4920127;29;20111;-75
2021/01/12 06:09:54;;;;;;;4.72;0.75;;;9.80;80.20;;;;;;4920289;29;20471;-75
2021/01/12 06:12:25;;;;;;;5.75;0.60;;;9.90;80.10;;;;;;4920872;29;20107;-75
2021/01/12 06:14:52;;;;;;;3.78;0.40;;;9.90;80.10;;;;;;4920694;29;20032;-75
2021/01/12 06:17:18;;;;;;;1.98;0.20;;;9.60;79.90;;;;;;4920656;29;20075;-74
2021/01/12 06:19:48;;;;;;;4.88;0.20;;;9.40;79.90;;;;;;4920487;29;20140;-73
2021/01/12 06:22:16;;;;;;;7.65;0.50;;;9.80;80.20;;;;;;4920362;29;20044;-75
2021/01/12 06:24:45;;;;;;;7.88;0.60;;;9.50;80.00;;;;;;4920209;29;20075;-75
2021/01/12 06:27:16;;;;;;;7.53;0.40;;;9.50;79.90;;;;;;4920502;29;20083;-75
2021/01/12 06:29:44;;;;;;;3.97;0.40;;;9.60;79.90;;;;;;4920194;29;20071;-75
2021/01/12 06:32:14;;;;;;;4.57;0.65;;;9.60;80.00;;;;;;4919837;29;20488;-75
2021/01/12 06:34:40;;;;;;;6.03;0.38;;;9.60;80.00;;;;;;4919567;29;20047;-76
2021/01/12 06:37:10;;;;;;;5.88;0.20;;;9.50;79.90;;;;;;4919106;29;20051;-75
2021/01/12 06:39:46;;;;;;;5.72;0.40;;;9.90;80.10;;;;;;4919636;29;20040;-76
2021/01/12 06:42:14;;;;;;;4.93;0.20;;;9.40;79.80;;;;;;4919672;29;20533;-76
2021/01/12 06:44:41;;;;;;;4.18;0.30;;;9.40;80.00;;;;;;4919814;29;20048;-76
2021/01/12 06:47:09;;;;;;;4.30;0.20;;;9.30;80.10;;;;;;4919602;29;20433;-75
2021/01/12 06:49:36;;;;;;;7.90;1.00;;;9.50;80.30;;;;;;4919650;29;20571;-76
2021/01/12 06:52:07;;;;;;;5.28;0.40;;;9.40;80.20;;;;;;4919426;29;20039;-76
2021/01/12 06:54:36;;;;;;;4.03;0.63;;;9.50;80.30;;;;;;4919785;29;20078;-78
2021/01/12 06:57:12;;;;;;;3.72;0.57;;;9.40;80.30;;;;;;4919489;29;20057;-77
2021/01/12 06:59:44;;;;;;;4.78;0.30;;;9.40;80.30;;;;;;4919646;29;20047;-77
2021/01/12 07:02:17;;;;;;;3.92;0.25;;;9.50;80.40;;;;;;4919121;29;20040;-76
2021/01/12 07:05:00;;;;;;;4.53;0.45;;;9.50;80.40;;;;;;4919600;29;20048;-76
2021/01/12 07:07:29;;;;;;;4.10;0.40;;;9.50;80.50;;;;;;4908721;29;20032;-75
2021/01/12 07:10:00;;;;;;;5.90;0.30;;;9.50;80.60;;;;;;4914473;29;20408;-76
2021/01/12 07:12:32;;;;;;;7.70;0.20;;;9.30;80.60;;;;;;4917288;29;20068;-78
2021/01/12 07:15:07;;;;;;;5.10;0.55;;;9.60;80.60;;;;;;4918964;29;20042;-75
2021/01/12 07:17:40;;;;;;;9.70;0.73;;;9.50;80.60;;;;;;4918868;29;20578;-75
2021/01/12 07:20:16;;;;;;;5.82;0.50;;;9.70;80.70;;;;;;4919208;29;20052;-77
2021/01/12 07:22:54;;;;;;;8.13;0.50;;;9.50;80.70;;;;;;4919129;29;20036;-74
2021/01/12 07:25:26;;;;;;;7.28;0.88;;;9.50;81.20;;;;;;4919480;29;20048;-77
2021/01/12 07:28:17;;;;;;;6.10;0.60;;;9.60;80.80;;;;;;4919604;29;20659;-75
2021/01/12 07:30:55;;;;;;;6.65;0.50;;;9.70;80.80;;;;;;4918886;29;20051;-76
2021/01/12 07:33:23;;;;;;;10.13;0.60;;;9.80;80.80;;;;;;4914451;29;20039;-76
2021/01/12 07:35:53;;;;;;;3.00;0.70;;;9.60;80.70;;;;;;4912341;29;20052;-76
2021/01/12 07:38:27;;;;;;;7.78;0.50;;;9.60;80.80;;;;;;4899173;29;20048;-76
2021/01/12 07:40:54;;;;;;;4.40;0.20;;;9.70;80.90;;;;;;4906836;29;20136;-77
2021/01/12 07:43:23;;;;;;;7.47;0.60;;;9.60;80.80;;;;;;4898768;29;20100;-76
2021/01/12 07:45:50;;;;;;;9.65;0.60;;;9.80;80.90;;;;;;4899071;29;20045;-77
2021/01/12 07:48:16;;;;;;;6.90;0.50;;;9.70;80.90;;;;;;4898690;29;20500;-77
2021/01/12 07:50:47;;;;;;;3.60;0.30;;;9.60;80.90;;;;;;4898493;29;20577;-76
2021/01/12 07:53:13;;;;;;;5.65;0.30;;;9.60;81.00;;;;;;4918518;29;20405;-75
2021/01/12 07:55:40;;;;;;;5.43;0.77;;;9.60;80.90;;;;;;4936963;29;20507;-75
2021/01/12 07:58:07;;;;;;;5.53;0.35;;;9.70;81.20;;;;;;4929295;29;20239;-76
2021/01/12 08:00:33;;;;;;;4.03;0.30;;;9.60;81.20;;;;;;4917064;29;20052;-76
2021/01/12 08:03:00;;;;;;;5.82;0.35;;;9.70;81.30;;;;;;4917139;29;20047;-77
2021/01/12 08:05:27;;;;;;;7.20;0.30;;;9.50;81.40;;;;;;4915668;29;20043;-76
2021/01/12 08:08:10;;;;;;;4.97;0.28;;;9.70;81.60;;;;;;4899078;29;20185;-76
2021/01/12 08:10:41;;;;;;;7.80;0.22;;;9.70;81.70;;;;;;4898330;29;20067;-77
2021/01/12 08:13:10;;;;;;;5.25;0.35;;;9.70;81.80;;;;;;4907500;29;20055;-77
2021/01/12 08:15:39;;;;;;;6.97;0.30;;;9.70;82.40;;;;;;4914860;29;20091;-77
2021/01/12 08:18:11;;;;;;;4.50;0.30;;;9.60;81.80;;;;;;4887263;29;20461;-77
2021/01/12 08:20:38;;;;;;;7.28;0.55;;;9.60;82.00;;;;;;4906833;29;20130;-77
2021/01/12 08:23:03;;;;;;;6.55;0.80;;;9.70;82.10;;;;;;4915313;29;20063;-77
2021/01/12 08:25:35;;;;;;;8.02;0.63;;;9.80;82.20;;;;;;4916118;29;20044;-76
2021/01/12 08:28:04;;;;;;;5.38;0.43;;;9.80;82.20;;;;;;4909442;29;20047;-77
2021/01/12 08:30:31;;;;;;;6.47;0.77;;;9.80;82.30;;;;;;4898796;29;20120;-79
2021/01/12 08:33:23;;;;;;;4.72;0.50;;;10.00;82.50;;;;;;4896154;29;20044;-77
2021/01/12 08:36:05;;;;;;;5.85;0.50;;;9.80;82.50;;;;;;4895664;29;20128;-78
2021/01/12 08:38:32;;;;;;;4.18;1.00;;;10.00;82.70;;;;;;4910580;29;20539;-77
2021/01/12 08:40:59;;;;;;;4.10;0.60;;;9.90;82.60;;;;;;4915811;29;20051;-77
2021/01/12 08:43:29;;;;;;;4.43;0.68;;;10.00;82.60;;;;;;4916445;29;20044;-77
2021/01/12 08:46:00;;;;;;;5.47;1.40;;;10.00;82.60;;;;;;4917023;29;20048;-77
2021/01/12 08:48:26;;;;;;;7.10;1.60;;;9.90;82.60;;;;;;4917073;29;20519;-78
2021/01/12 08:50:52;;;;;;;5.38;1.50;;;10.10;82.80;;;;;;4916783;29;20079;-78
2021/01/12 08:53:25;;;;;;;5.63;1.80;;;10.10;82.80;;;;;;4916541;29;20504;-77
2021/01/12 08:55:51;;;;;;;9.57;2.53;;;10.30;83.00;;;;;;4916643;29;20535;-77
2021/01/12 08:58:18;;;;;;;10.15;2.50;;;10.40;83.10;;;;;;4907605;29;20045;-77
2021/01/12 09:00:43;;;;;;;14.07;4.35;;;10.30;83.20;;;;;;4897920;29;20040;-78
2021/01/12 09:03:13;;;;;;;13.05;5.90;;;10.50;83.30;;;;;;4897574;29;20056;-77
2021/01/12 09:05:41;;;;;;;16.67;5.55;;;10.60;83.30;;;;;;4897824;29;20055;-78
2021/01/12 09:08:09;;;;;;;7.43;2.45;;;10.60;83.30;;;;;;4897878;29;20064;-78
2021/01/12 09:10:38;;;;;;;12.60;4.13;;;10.80;83.40;;;;;;4897987;29;20044;-77
2021/01/12 09:13:04;;;;;;;9.82;2.80;;;10.90;83.40;;;;;;4898526;29;20109;-77
2021/01/12 09:15:39;;;;;;;9.00;2.10;;;11.10;83.50;;;;;;4898275;29;20044;-78
2021/01/12 09:18:05;;;;;;;11.27;5.20;;;11.10;83.60;;;;;;4898270;29;20040;-78
2021/01/12 09:20:31;;;;;;;7.70;1.77;;;11.20;83.60;;;;;;4897866;29;20561;-77
2021/01/12 09:23:12;;;;;;;8.27;1.80;;;11.60;83.60;;;;;;4898070;29;20041;-77
2021/01/12 09:25:40;;;;;;;7.13;2.35;;;11.50;83.40;;;;;;4899257;29;20040;-77
2021/01/12 09:28:17;;;;;;;10.02;4.07;;;11.40;83.30;;;;;;4902173;29;20108;-78
2021/01/12 09:30:45;;;;;;;8.45;1.33;;;11.60;83.40;;;;;;4937246;29;20043;-77
2021/01/12 09:33:23;;;;;;;6.22;1.67;;;11.70;83.40;;;;;;4939385;29;20057;-78
2021/01/12 09:36:02;;;;;;;4.57;1.00;;;11.90;83.30;;;;;;4940022;29;20054;-77
2021/01/12 09:38:45;;;;;;;5.97;2.17;;;12.00;83.10;;;;;;4938155;29;20353;-76
2021/01/12 09:41:12;;;;;;;5.07;1.02;;;12.30;83.20;;;;;;4927006;29;20052;-76
2021/01/12 09:43:38;;;;;;;5.80;0.98;;;12.60;83.10;;;;;;4901702;29;20049;-75
2021/01/12 09:46:05;;;;;;;5.38;0.88;;;12.90;82.80;;;;;;4920473;29;20091;-76
2021/01/12 09:48:31;;;;;;;5.13;1.17;;;13.10;82.60;;;;;;4920465;29;20537;-76
2021/01/12 09:50:57;;;;;;;8.02;1.02;;;13.40;82.50;;;;;;4920056;29;20094;-75
2021/01/12 09:53:23;;;;;;;13.10;6.65;;;13.70;82.00;;;;;;4917843;29;20044;-76
2021/01/12 09:55:49;;;;;;;7.65;3.25;;;13.70;81.50;;;;;;4909163;29;20036;-76
2021/01/12 09:58:15;;;;;;;12.13;4.55;;;13.80;81.20;;;;;;4919983;29;20517;-75
2021/01/12 10:00:41;;;;;;;17.42;4.55;;;13.80;81.00;;;;;;4920068;29;20055;-75
2021/01/12 10:03:07;;;;;;;18.88;5.30;;;13.80;80.90;;;;;;4920548;29;20392;-75
2021/01/12 10:05:40;;;;;;;12.48;3.20;;;13.60;81.10;;;;;;4920089;29;20040;-75
2021/01/12 10:08:07;;;;;;;6.50;1.35;;;13.40;80.90;;;;;;4919845;29;20040;-76
2021/01/12 10:10:34;;;;;;;8.48;2.08;;;13.30;80.80;;;;;;4920596;29;20059;-76
2021/01/12 10:13:01;;;;;;;6.65;2.50;;;13.30;81.00;;;;;;4920618;29;20094;-75
2021/01/12 10:15:27;;;;;;;7.82;1.98;;;13.40;81.10;;;;;;4920703;29;20091;-75
2021/01/12 10:17:53;;;;;;;6.95;0.85;;;13.20;80.90;;;;;;4920162;29;20051;-75
2021/01/12 10:20:20;;;;;;;6.10;0.50;;;13.30;81.00;;;;;;4920241;29;20641;-75
2021/01/12 10:22:45;;;;;;;7.05;1.05;;;13.30;81.00;;;;;;4920089;29;20102;-75
2021/01/12 10:25:12;;;;;;;5.65;1.20;;;13.20;80.80;;;;;;4919944;29;20130;-75
2021/01/12 10:27:45;;;;;;;12.70;4.22;;;13.30;80.80;;;;;;4920180;29;20180;-75
2021/01/12 10:30:13;;;;;;;5.90;2.00;;;13.30;80.90;;;;;;4920245;29;20044;-75
2021/01/12 10:32:41;;;;;;;6.75;1.48;;;13.40;80.90;;;;;;4920069;29;20111;-75
2021/01/12 10:35:07;;;;;;;8.52;4.10;;;13.50;80.90;;;;;;4919562;29;20517;-75
2021/01/12 10:37:34;;;;;;;8.30;2.90;;;13.40;80.90;;;;;;4919427;29;20086;-75
2021/01/12 10:39:59;;;;;;;9.35;3.83;;;13.10;80.60;;;;;;4920343;29;20048;-76
2021/01/12 10:42:26;;;;;;;6.43;1.95;;;13.20;80.70;;;;;;4920399;29;20059;-75
2021/01/12 10:44:52;;;;;;;7.93;2.67;;;13.30;81.00;;;;;;4919954;29;20044;-75
2021/01/12 10:47:18;;;;;;;7.20;2.80;;;13.30;80.80;;;;;;4920285;29;20131;-75
2021/01/12 10:49:44;;;;;;;12.80;3.40;;;13.30;80.90;;;;;;4919351;29;20043;-76
2021/01/12 10:52:10;;;;;;;6.22;2.53;;;13.40;80.90;;;;;;4919720;29;20044;-75
2021/01/12 10:54:36;;;;;;;6.97;1.70;;;13.30;80.60;;;;;;4920015;29;20051;-76
2021/01/12 10:57:03;;;;;;;6.30;1.77;;;13.10;80.50;;;;;;4919750;29;20127;-76
2021/01/12 10:59:29;;;;;;;4.72;1.10;;;13.40;80.60;;;;;;4919877;29;20048;-76
2021/01/12 11:01:57;;;;;;;6.72;2.30;;;13.60;80.70;;;;;;4919276;29;20575;-75
2021/01/12 11:04:24;;;;;;;6.55;2.30;;;13.50;80.70;;;;;;4919566;29;20070;-76
2021/01/12 11:06:51;;;;;;;4.50;1.20;;;13.60;80.60;;;;;;4919026;29;20043;-76
2021/01/12 11:09:20;;;;;;;5.93;2.03;;;13.70;80.50;;;;;;4919517;29;20127;-76
2021/01/12 11:11:49;;;;;;;5.47;0.80;;;13.60;80.40;;;;;;4919615;29;20059;-76
2021/01/12 11:14:18;;;;;;;4.78;1.10;;;13.60;80.50;;;;;;4919541;29;20051;-75
2021/01/12 11:16:45;;;;;;;6.50;1.98;;;13.60;80.60;;;;;;4919311;29;20432;-76
2021/01/12 11:19:11;;;;;;;7.78;3.05;;;13.60;80.30;;;;;;4919229;29;20036;-75
2021/01/12 11:21:41;;;;;;;8.77;3.50;;;13.50;80.40;;;;;;4918723;29;20036;-76
2021/01/12 11:24:08;;;;;;;3.72;2.25;;;13.60;80.40;;;;;;4918654;29;20504;-75
2021/01/12 11:26:34;;;;;;;5.65;2.70;;;13.70;80.40;;;;;;4918785;29;20032;-76
2021/01/12 11:29:00;;;;;;;4.88;1.48;;;13.80;80.40;;;;;;4917948;29;20139;-76
2021/01/12 11:31:27;;;;;;;6.07;1.65;;;13.80;80.30;;;;;;4918236;29;20115;-75
2021/01/12 11:33:53;;;;;;;4.47;0.95;;;13.80;80.20;;;;;;4917699;29;20036;-75
2021/01/12 11:36:19;;;;;;;3.78;0.68;;;14.00;80.20;;;;;;4918804;29;20108;-75
2021/01/12 11:38:45;;;;;;;4.75;1.02;;;13.90;80.30;;;;;;4917908;29;20117;-75
2021/01/12 11:41:11;;;;;;;4.78;0.93;;;13.80;80.00;;;;;;4918092;29;20032;-75
2021/01/12 11:43:38;;;;;;;6.32;1.00;;;13.90;80.10;;;;;;4917984;29;20052;-76
2021/01/12 11:46:05;;;;;;;6.43;1.05;;;14.00;80.00;;;;;;4917789;29;20114;-75
2021/01/12 11:48:32;;;;;;;5.47;1.20;;;13.90;80.00;;;;;;4917218;29;20463;-75
2021/01/12 11:50:59;;;;;;;4.40;1.10;;;13.90;79.90;;;;;;4918894;29;20044;-75
2021/01/12 11:53:25;;;;;;;4.45;1.48;;;13.90;79.80;;;;;;4918294;29;20125;-75
2021/01/12 11:55:50;;;;;;;4.60;1.20;;;13.80;79.90;;;;;;4919089;29;20032;-75
2021/01/12 11:58:16;;;;;;;6.00;1.45;;;13.90;80.10;;;;;;4918704;29;20044;-76
2021/01/12 12:00:42;;;;;;;5.07;1.30;;;14.00;80.00;;;;;;4918506;29;20192;-75
2021/01/12 12:03:08;;;;;;;5.35;1.30;;;13.90;80.00;;;;;;4918279;29;20562;-75
2021/01/12 12:05:35;;;;;;;5.55;0.77;;;14.00;79.80;;;;;;4917060;29;20048;-76
2021/01/12 12:08:01;;;;;;;6.47;1.00;;;13.90;79.70;;;;;;4917746;29;20052;-75
2021/01/12 12:10:27;;;;;;;7.57;0.80;;;13.90;79.80;;;;;;4916709;29;20393;-75
2021/01/12 12:12:53;;;;;;;4.63;0.95;;;14.00;80.00;;;;;;4916870;29;20044;-75
2021/01/12 12:15:21;;;;;;;4.72;0.70;;;13.90;79.90;;;;;;4917186;29;20055;-76
2021/01/12 12:17:47;;;;;;;4.13;0.40;;;14.10;79.70;;;;;;4914204;29;20052;-75
2021/01/12 12:20:14;;;;;;;4.22;0.95;;;14.10;79.80;;;;;;4917069;29;20056;-75
2021/01/12 12:22:40;;;;;;;5.10;1.10;;;14.20;79.90;;;;;;4917557;29;20062;-75
2021/01/12 12:25:10;;;;;;;6.22;1.00;;;14.10;79.70;;;;;;4917940;29;20095;-76
2021/01/12 12:27:37;;;;;;;7.15;1.77;;;14.10;79.70;;;;;;4917759;29;20078;-76
2021/01/12 12:30:06;;;;;;;4.55;1.02;;;14.10;79.60;;;;;;4917915;29;20055;-77
2021/01/12 12:32:32;;;;;;;4.95;1.10;;;13.80;79.50;;;;;;4916455;29;20135;-77
2021/01/12 12:34:58;;;;;;;7.00;1.60;;;13.70;79.80;;;;;;4917607;29;20481;-77
2021/01/12 12:37:24;;;;;;;4.97;1.00;;;13.70;79.90;;;;;;4917703;29;20131;-77
2021/01/12 12:39:50;;;;;;;5.85;0.70;;;13.60;80.10;;;;;;4917297;29;20048;-76
2021/01/12 12:42:16;;;;;;;5.32;0.88;;;13.50;80.30;;;;;;4917752;29;20074;-76
2021/01/12 12:44:42;;;;;;;7.18;0.60;;;13.60;80.40;;;;;;4917508;29;20048;-76
2021/01/12 12:47:08;;;;;;;5.38;0.40;;;13.70;80.50;;;;;;4917707;29;20043;-76
2021/01/12 12:49:34;;;;;;;3.13;0.32;;;13.70;80.60;;;;;;4917747;29;20048;-76
2021/01/12 12:51:59;;;;;;;1.67;0.10;;;13.70;80.50;;;;;;4917345;29;20126;-76
2021/01/12 12:54:26;;;;;;;4.05;0.40;;;13.70;80.60;;;;;;4917482;29;20040;-76
2021/01/12 12:56:56;;;;;;;4.55;0.38;;;13.60;80.50;;;;;;4917647;29;20052;-76
2021/01/12 12:59:23;;;;;;;2.42;0.20;;;13.60;80.70;;;;;;4917266;29;20051;-76
2021/01/12 13:01:50;;;;;;;3.75;0.52;;;13.60;80.80;;;;;;4916848;29;20047;-76
2021/01/12 13:04:16;;;;;;;3.38;0.32;;;13.60;80.90;;;;;;4917442;29;20071;-76
2021/01/12 13:06:42;;;;;;;2.03;0.65;;;13.60;81.00;;;;;;4917525;29;20131;-77
2021/01/12 13:09:08;;;;;;;6.55;0.73;;;13.60;81.00;;;;;;4917211;29;20322;-76